Time;durP1;ratioP1;P1;durP2;ratioP2;P2;SDS_P1;SDS_P2;PMS_P1;PMS_P2;Temp;Humidity;BMP_temperature;BMP_pressure;BME280_temperature;BME280_humidity;BME280_pressure;Samples;Min_cycle;Max_cycle;Signal;HPM_P1;HPM_P2
2022/03/09 00:00:51;;;;;;;11.67;7.27;;;;;;;0.29;76.63;102626.41;5031540;28;20194;-74
2022/03/09 00:03:17;;;;;;;11.87;7.13;;;;;;;0.27;77.02;102627.03;5046366;28;20202;-73
2022/03/09 00:05:42;;;;;;;11.10;6.60;;;;;;;0.23;77.03;102628.34;5031760;28;20194;-73
2022/03/09 00:08:07;;;;;;;14.17;7.13;;;;;;;0.20;76.76;102639.03;5043133;28;20194;-73
2022/03/09 00:10:33;;;;;;;12.87;6.70;;;;;;;0.18;76.92;102643.06;5031651;28;20247;-73
2022/03/09 00:12:58;;;;;;;10.30;6.70;;;;;;;0.15;77.64;102646.97;5032030;28;20210;-73
2022/03/09 00:15:24;;;;;;;11.20;6.43;;;;;;;0.08;77.19;102648.81;5041810;28;20190;-74
2022/03/09 00:17:49;;;;;;;10.43;6.87;;;;;;;-0.02;77.92;102644.56;5038389;28;20301;-73
2022/03/09 00:20:14;;;;;;;9.80;6.23;;;;;;;-0.09;77.04;102654.84;5024881;28;20200;-73
2022/03/09 00:22:40;;;;;;;12.10;6.57;;;;;;;0.02;76.79;102649.13;5020288;28;20202;-73
2022/03/09 00:25:05;;;;;;;16.43;6.73;;;;;;;0.02;77.20;102651.63;5016786;28;20228;-73
2022/03/09 00:27:31;;;;;;;10.33;6.43;;;;;;;0.00;77.61;102648.13;5038475;28;20186;-74
2022/03/09 00:29:57;;;;;;;10.73;6.17;;;;;;;0.02;77.81;102651.63;5031398;28;20182;-73
2022/03/09 00:32:22;;;;;;;9.87;6.13;;;;;;;0.02;78.47;102651.63;5031264;28;21256;-73
2022/03/09 00:34:47;;;;;;;8.83;6.10;;;;;;;0.00;78.46;102655.66;5031100;28;20277;-73
2022/03/09 00:37:13;;;;;;;9.90;5.97;;;;;;;-0.17;78.26;102653.25;5039738;28;20245;-74
2022/03/09 00:39:38;;;;;;;10.00;6.60;;;;;;;-0.19;78.25;102652.22;5037309;28;20232;-73
2022/03/09 00:42:04;;;;;;;8.43;5.67;;;;;;;-0.23;78.10;102651.06;5021793;28;20276;-73
2022/03/09 00:44:30;;;;;;;9.23;5.43;;;;;;;-0.23;78.80;102661.13;5042363;28;20293;-73
2022/03/09 00:46:56;;;;;;;9.27;5.97;;;;;;;-0.27;78.08;102656.56;5029022;28;20244;-73
2022/03/09 00:49:21;;;;;;;10.10;6.70;;;;;;;-0.35;78.19;102662.53;5006098;28;20457;-73
2022/03/09 00:51:47;;;;;;;12.43;6.43;;;;;;;-0.24;78.47;102653.44;5025349;28;20221;-73
2022/03/09 00:54:12;;;;;;;9.87;6.23;;;;;;;-0.27;78.74;102656.56;5033673;28;20222;-74
2022/03/09 00:56:37;;;;;;;9.10;6.17;;;;;;;-0.34;78.44;102654.25;5034605;28;20198;-73
2022/03/09 00:59:02;;;;;;;10.17;6.37;;;;;;;-0.40;78.63;102660.34;5030863;28;20183;-73
2022/03/09 01:01:28;;;;;;;11.27;6.63;;;;;;;-0.39;77.77;102665.50;4997519;28;20202;-73
2022/03/09 01:03:53;;;;;;;8.83;6.03;;;;;;;-0.36;78.09;102660.75;5030508;28;20213;-74
2022/03/09 01:06:19;;;;;;;11.07;5.73;;;;;;;-0.35;78.83;102657.50;5040159;28;20196;-73
2022/03/09 01:08:44;;;;;;;8.57;5.87;;;;;;;-0.36;78.71;102659.88;5017864;28;20187;-73
2022/03/09 01:11:09;;;;;;;8.77;5.50;;;;;;;-0.36;79.18;102660.75;5030788;28;20241;-73
2022/03/09 01:13:35;;;;;;;9.57;5.80;;;;;;;-0.36;79.80;102660.75;5040946;28;20755;-73
2022/03/09 01:16:01;;;;;;;9.10;5.90;;;;;;;-0.39;79.71;102652.03;5028560;28;20198;-73
2022/03/09 01:18:26;;;;;;;9.90;6.47;;;;;;;-0.47;79.79;102655.47;5030283;28;20214;-73
2022/03/09 01:20:52;;;;;;;9.10;5.43;;;;;;;-0.52;79.83;102656.69;5030402;28;20186;-73
2022/03/09 01:23:18;;;;;;;9.47;5.80;;;;;;;-0.53;79.48;102653.31;5012578;28;20213;-74
2022/03/09 01:25:43;;;;;;;8.87;5.70;;;;;;;-0.57;79.89;102653.75;5030153;28;20598;-73
2022/03/09 01:28:08;;;;;;;8.50;5.60;;;;;;;-0.52;80.65;102646.63;5029869;28;20182;-73
2022/03/09 01:30:33;;;;;;;8.47;5.77;;;;;;;-0.53;80.74;102639.84;5030156;28;20209;-73
2022/03/09 01:32:59;;;;;;;7.47;5.67;;;;;;;-0.49;81.32;102642.75;5036887;28;20673;-74
2022/03/09 01:35:24;;;;;;;8.40;5.60;;;;;;;-0.55;80.52;102644.72;5049919;28;20196;-73
2022/03/09 01:37:49;;;;;;;9.37;5.57;;;;;;;-0.62;80.50;102637.38;5017078;28;20280;-73
2022/03/09 01:40:16;;;;;;;8.80;5.53;;;;;;;-0.64;80.05;102635.47;5029899;28;20182;-73
2022/03/09 01:42:41;;;;;;;7.33;5.37;;;;;;;-0.70;79.54;102629.84;5029753;28;20218;-74
2022/03/09 01:45:10;;;;;;;7.03;5.43;;;;;;;-0.81;79.85;102631.41;5033707;28;20451;-73
2022/03/09 01:47:36;;;;;;;8.90;5.43;;;;;;;-0.74;79.99;102630.31;5030070;28;20200;-74
2022/03/09 01:50:03;;;;;;;6.90;5.03;;;;;;;-0.74;79.79;102632.81;5037851;28;20449;-74
2022/03/09 01:52:29;;;;;;;7.33;5.47;;;;;;;-0.74;79.81;102633.72;5030864;28;20182;-73
2022/03/09 01:54:55;;;;;;;8.33;5.50;;;;;;;-0.76;80.16;102634.31;5049085;28;20827;-73
2022/03/09 01:57:21;;;;;;;7.77;5.77;;;;;;;-0.77;80.83;102632.56;5015952;28;20304;-73
2022/03/09 01:59:52;;;;;;;7.53;5.33;;;;;;;-0.79;80.92;102622.34;5011949;28;20675;-73
2022/03/09 02:02:18;;;;;;;7.13;5.53;;;;;;;-0.82;81.18;102624.56;5029721;28;20799;-73
2022/03/09 02:04:44;;;;;;;7.37;5.10;;;;;;;-0.85;81.06;102625.94;5029876;28;20843;-73
2022/03/09 02:07:11;;;;;;;8.57;5.77;;;;;;;-0.90;80.83;102620.50;5042330;28;20440;-73
2022/03/09 02:09:46;;;;;;;8.50;5.60;;;;;;;-0.88;80.56;102616.47;5032096;28;20958;-73
2022/03/09 02:12:16;;;;;;;7.53;5.33;;;;;;;-0.90;81.25;102617.06;5045163;28;20435;-73
2022/03/09 02:14:44;;;;;;;8.83;5.40;;;;;;;-0.89;81.47;102611.28;5029170;28;20453;-73
2022/03/09 02:17:16;;;;;;;10.10;6.00;;;;;;;-0.89;81.65;102624.75;5040978;28;20549;-73
2022/03/09 02:19:43;;;;;;;8.63;5.70;;;;;;;-0.91;81.51;102621.19;5026613;28;20446;-74
2022/03/09 02:22:28;;;;;;;8.27;5.57;;;;;;;-0.93;81.53;102627.72;5029389;28;20440;-73
2022/03/09 02:24:55;;;;;;;8.33;5.47;;;;;;;-1.00;82.06;102630.41;5029277;28;20500;-73
2022/03/09 02:27:20;;;;;;;9.77;5.73;;;;;;;-0.99;82.11;102632.19;5029533;28;20516;-73
2022/03/09 02:29:46;;;;;;;10.10;5.83;;;;;;;-0.99;82.07;102631.28;5029425;28;20174;-73
2022/03/09 02:32:12;;;;;;;9.43;5.70;;;;;;;-0.99;82.08;102634.72;5029476;28;20252;-73
2022/03/09 02:34:37;;;;;;;11.40;6.03;;;;;;;-1.02;82.16;102633.50;5029407;28;20461;-73
2022/03/09 02:37:03;;;;;;;10.43;5.20;;;;;;;-1.11;82.86;102633.56;5029749;28;20570;-73
2022/03/09 02:39:28;;;;;;;9.43;5.57;;;;;;;-1.08;82.67;102633.84;5037081;28;20178;-72
2022/03/09 02:41:53;;;;;;;9.47;5.70;;;;;;;-1.08;82.87;102637.97;5035900;28;20281;-73
2022/03/09 02:44:19;;;;;;;8.97;5.40;;;;;;;-1.17;82.35;102630.47;5019224;28;20206;-73
2022/03/09 02:46:44;;;;;;;6.80;5.27;;;;;;;-1.12;82.13;102630.88;5040756;28;20189;-73
2022/03/09 02:49:10;;;;;;;10.07;5.57;;;;;;;-1.11;82.69;102633.56;5052908;28;20200;-73
2022/03/09 02:51:35;;;;;;;9.23;5.40;;;;;;;-1.16;83.34;102628.81;5010855;28;20194;-73
2022/03/09 02:54:01;;;;;;;8.23;5.67;;;;;;;-1.11;83.99;102636.06;5016972;28;20206;-73
2022/03/09 02:56:26;;;;;;;9.87;6.30;;;;;;;-1.07;84.06;102635.63;5030101;28;20205;-73
2022/03/09 02:58:52;;;;;;;11.83;5.73;;;;;;;-1.09;83.86;102637.06;5052669;28;20205;-72
2022/03/09 03:01:17;;;;;;;8.27;5.63;;;;;;;-1.10;83.69;102634.44;5031345;28;20452;-73
2022/03/09 03:03:44;;;;;;;8.77;5.30;;;;;;;-1.19;83.98;102638.59;5032820;28;20250;-73
2022/03/09 03:06:10;;;;;;;11.50;5.90;;;;;;;-1.20;83.40;102634.28;5033176;28;20201;-73
2022/03/09 03:08:38;;;;;;;8.87;5.57;;;;;;;-1.32;83.05;102633.16;5032872;28;20441;-73
2022/03/09 03:11:04;;;;;;;11.63;5.63;;;;;;;-1.35;82.91;102632.84;5032750;28;20440;-73
2022/03/09 03:13:29;;;;;;;9.23;5.27;;;;;;;-1.33;82.13;102633.91;5032527;28;20468;-73
2022/03/09 03:15:54;;;;;;;9.43;5.27;;;;;;;-1.34;83.22;102638.03;5032745;28;20936;-72
2022/03/09 03:18:20;;;;;;;12.33;7.07;;;;;;;-1.32;82.95;102643.22;5032875;28;20217;-72
2022/03/09 03:20:45;;;;;;;8.97;6.17;;;;;;;-1.41;82.30;102638.22;5039571;28;20197;-73
2022/03/09 03:23:10;;;;;;;8.37;6.20;;;;;;;-1.35;82.31;102636.28;5052079;28;20287;-73
2022/03/09 03:25:36;;;;;;;9.23;6.60;;;;;;;-1.29;82.55;102634.31;5052358;28;20193;-73
2022/03/09 03:28:01;;;;;;;10.40;6.47;;;;;;;-1.35;82.73;102627.84;5017155;28;20175;-73
2022/03/09 03:30:27;;;;;;;11.73;6.97;;;;;;;-1.46;82.74;102625.94;5032451;28;20183;-73
2022/03/09 03:32:52;;;;;;;9.47;6.13;;;;;;;-1.49;82.31;102626.53;5032356;28;20204;-73
2022/03/09 03:35:18;;;;;;;10.57;6.57;;;;;;;-1.51;82.10;102624.63;5032132;28;20260;-73
2022/03/09 03:37:43;;;;;;;11.07;6.50;;;;;;;-1.48;81.86;102628.31;5032758;28;20236;-74
2022/03/09 03:40:09;;;;;;;9.87;6.23;;;;;;;-1.43;82.02;102632.13;5038891;28;20657;-74
2022/03/09 03:42:34;;;;;;;9.13;6.20;;;;;;;-1.48;82.74;102628.31;5052073;28;20185;-74
2022/03/09 03:45:00;;;;;;;10.30;5.83;;;;;;;-1.46;82.68;102621.78;5041520;28;20495;-74
2022/03/09 03:47:25;;;;;;;8.17;5.80;;;;;;;-1.45;83.50;102617.66;5039919;28;20194;-74
2022/03/09 03:49:51;;;;;;;10.10;6.33;;;;;;;-1.48;83.61;102639.97;4997243;28;20195;-75
2022/03/09 03:52:16;;;;;;;7.97;5.80;;;;;;;-1.48;83.78;102635.84;5042158;28;20329;-75
2022/03/09 03:54:42;;;;;;;10.33;6.60;;;;;;;-1.50;83.58;102636.44;5043998;28;20215;-74
2022/03/09 03:57:07;;;;;;;11.97;6.67;;;;;;;-1.48;83.93;102630.81;5035232;28;20219;-74
2022/03/09 03:59:33;;;;;;;10.63;6.73;;;;;;;-1.56;83.98;102634.22;5031761;28;20225;-74
2022/03/09 04:01:59;;;;;;;11.30;7.20;;;;;;;-1.56;84.41;102633.34;5036744;28;20253;-74
2022/03/09 04:04:24;;;;;;;9.83;6.17;;;;;;;-1.63;83.93;102646.94;5039641;28;20576;-74
2022/03/09 04:06:49;;;;;;;11.10;6.67;;;;;;;-1.71;84.17;102644.41;5032690;28;20448;-74
2022/03/09 04:09:15;;;;;;;9.57;6.33;;;;;;;-1.72;83.64;102638.53;5030505;28;20183;-74
2022/03/09 04:11:40;;;;;;;10.50;6.30;;;;;;;-1.75;83.17;102628.19;5031502;28;20201;-75
2022/03/09 04:14:05;;;;;;;10.27;6.27;;;;;;;-1.78;83.45;102627.91;5031405;28;20212;-74
2022/03/09 04:16:31;;;;;;;11.50;6.20;;;;;;;-1.82;83.72;102623.31;5016540;28;20225;-74
2022/03/09 04:18:56;;;;;;;9.90;6.40;;;;;;;-1.81;84.06;102627.59;5031542;28;20187;-74
2022/03/09 04:21:22;;;;;;;10.27;6.50;;;;;;;-1.76;83.95;102630.53;5036310;28;20260;-74
2022/03/09 04:23:47;;;;;;;9.53;6.53;;;;;;;-1.82;83.90;102622.41;5033030;28;20649;-74
2022/03/09 04:26:13;;;;;;;7.57;5.80;;;;;;;-1.84;83.25;102621.41;5031298;28;20194;-74
2022/03/09 04:28:38;;;;;;;8.70;6.37;;;;;;;-1.87;83.36;102622.00;5028549;28;20196;-74
2022/03/09 04:31:03;;;;;;;11.17;6.53;;;;;;;-1.88;82.85;102617.69;5051068;28;20198;-74
2022/03/09 04:33:29;;;;;;;11.00;6.67;;;;;;;-1.88;83.11;102619.34;5045076;28;20548;-74
2022/03/09 04:35:54;;;;;;;10.60;6.67;;;;;;;-1.90;83.66;102621.69;5031184;28;20195;-75
2022/03/09 04:38:19;;;;;;;10.63;7.70;;;;;;;-1.94;84.33;102622.13;5050169;28;20689;-74
2022/03/09 04:40:46;;;;;;;11.97;6.93;;;;;;;-1.99;83.66;102628.31;5009496;28;20190;-74
2022/03/09 04:43:11;;;;;;;11.70;7.23;;;;;;;-2.03;83.16;102628.75;5031088;28;20464;-74
2022/03/09 04:45:36;;;;;;;10.80;6.77;;;;;;;-1.93;83.55;102628.03;5030976;28;20676;-74
2022/03/09 04:48:02;;;;;;;16.50;7.37;;;;;;;-1.85;84.11;102627.13;5031138;28;20209;-74
2022/03/09 04:50:27;;;;;;;12.90;7.70;;;;;;;-1.87;84.50;102634.53;5027036;28;20201;-74
2022/03/09 04:52:53;;;;;;;11.77;7.87;;;;;;;-1.92;85.25;102630.66;5049077;28;20213;-74
2022/03/09 04:55:18;;;;;;;10.83;7.73;;;;;;;-2.02;85.09;102635.53;5044327;28;20232;-74
2022/03/09 04:57:43;;;;;;;12.20;8.27;;;;;;;-2.07;84.92;102626.69;5034134;28;20241;-74
2022/03/09 05:00:09;;;;;;;10.50;7.63;;;;;;;-2.08;84.66;102632.44;5013165;28;20194;-74
2022/03/09 05:02:35;;;;;;;11.60;8.00;;;;;;;-2.16;84.21;102623.28;5036861;28;20197;-73
2022/03/09 05:05:01;;;;;;;10.77;7.40;;;;;;;-2.15;83.91;102621.66;5035704;28;20227;-73
2022/03/09 05:07:27;;;;;;;13.60;8.97;;;;;;;-2.16;83.99;102625.78;5030588;28;20254;-74
2022/03/09 05:09:53;;;;;;;14.17;8.10;;;;;;;-2.17;84.02;102625.63;5030416;28;20488;-74
2022/03/09 05:12:18;;;;;;;12.40;8.13;;;;;;;-2.33;84.04;102638.31;5043415;28;20357;-73
2022/03/09 05:14:44;;;;;;;13.73;8.43;;;;;;;-2.31;83.89;102636.84;5033641;28;20929;-73
2022/03/09 05:17:09;;;;;;;14.67;8.67;;;;;;;-2.30;83.55;102635.22;5012631;28;20978;-73
2022/03/09 05:19:35;;;;;;;14.90;8.80;;;;;;;-2.27;83.63;102636.41;5012531;28;20186;-74
2022/03/09 05:22:00;;;;;;;14.20;8.63;;;;;;;-2.28;83.20;102633.75;5012792;28;20224;-74
2022/03/09 05:24:26;;;;;;;14.00;8.40;;;;;;;-2.30;83.42;102632.72;5030115;28;20252;-74
2022/03/09 05:26:51;;;;;;;12.23;8.93;;;;;;;-2.35;83.40;102639.78;5030137;28;20230;-74
2022/03/09 05:29:16;;;;;;;14.83;8.27;;;;;;;-2.39;83.27;102646.84;5030050;28;20277;-74
2022/03/09 05:31:44;;;;;;;13.73;8.53;;;;;;;-2.43;83.27;102644.78;5028888;28;20197;-74
2022/03/09 05:34:10;;;;;;;14.00;8.80;;;;;;;-2.40;83.36;102645.06;5029809;28;20210;-74
2022/03/09 05:36:36;;;;;;;15.57;9.20;;;;;;;-2.39;83.35;102650.22;5033389;28;20440;-74
2022/03/09 05:39:02;;;;;;;16.57;8.70;;;;;;;-2.41;83.30;102648.31;5012482;28;21002;-74
2022/03/09 05:41:27;;;;;;;14.17;8.87;;;;;;;-2.40;83.60;102653.47;5029996;28;20183;-73
2022/03/09 05:43:52;;;;;;;12.97;8.10;;;;;;;-2.40;83.96;102653.47;5029838;28;20587;-74
2022/03/09 05:46:18;;;;;;;13.13;8.20;;;;;;;-2.36;84.09;102659.66;5029938;28;20662;-73
2022/03/09 05:48:43;;;;;;;14.80;8.60;;;;;;;-2.35;84.58;102664.84;5029731;28;20335;-73
2022/03/09 05:51:08;;;;;;;12.43;8.40;;;;;;;-2.29;85.29;102657.06;5048268;28;20230;-75
2022/03/09 05:53:34;;;;;;;13.60;8.50;;;;;;;-2.32;85.37;102657.63;5049678;28;20327;-73
2022/03/09 05:55:59;;;;;;;15.90;8.90;;;;;;;-2.32;85.67;102665.16;5044260;28;20532;-74
2022/03/09 05:58:25;;;;;;;12.87;8.23;;;;;;;-2.31;85.71;102668.53;5015410;28;20206;-74
2022/03/09 06:00:50;;;;;;;14.83;8.43;;;;;;;-2.33;85.22;102668.41;5047598;28;20208;-74
2022/03/09 06:03:15;;;;;;;14.87;8.23;;;;;;;-2.31;85.25;102668.53;5029409;28;20210;-74
2022/03/09 06:05:41;;;;;;;13.57;7.63;;;;;;;-2.34;84.96;102664.09;5011906;28;20202;-74
2022/03/09 06:08:07;;;;;;;13.83;7.70;;;;;;;-2.29;85.33;102670.44;5048357;28;20181;-74
2022/03/09 06:10:33;;;;;;;12.87;8.40;;;;;;;-2.29;84.61;102669.59;5047334;28;20246;-74
2022/03/09 06:12:58;;;;;;;15.97;8.60;;;;;;;-2.27;84.84;102676.53;5037188;28;20468;-74
2022/03/09 06:15:23;;;;;;;12.97;8.97;;;;;;;-2.24;84.88;102676.84;5034185;28;20198;-74
2022/03/09 06:17:50;;;;;;;13.63;8.20;;;;;;;-2.25;85.50;102685.06;5042134;28;20224;-74
2022/03/09 06:20:18;;;;;;;10.83;7.80;;;;;;;-2.25;85.46;102682.56;5048775;28;20200;-74
2022/03/09 06:22:43;;;;;;;13.10;8.93;;;;;;;-2.20;85.34;102688.91;5017280;28;20496;-74
2022/03/09 06:25:09;;;;;;;13.13;8.90;;;;;;;-2.19;85.80;102683.19;5012369;28;20542;-74
2022/03/09 06:27:42;;;;;;;13.40;8.03;;;;;;;-2.10;85.78;102685.72;5029930;28;20183;-72
2022/03/09 06:30:09;;;;;;;13.37;8.53;;;;;;;-2.02;85.91;102687.34;5018802;28;20265;-72
2022/03/09 06:32:34;;;;;;;13.43;8.63;;;;;;;-2.01;85.70;102689.13;5029224;28;20567;-72
2022/03/09 06:35:01;;;;;;;11.73;7.67;;;;;;;-1.90;86.69;102683.53;5027938;28;20520;-72
2022/03/09 06:37:27;;;;;;;13.67;9.27;;;;;;;-1.84;86.65;102686.66;5029285;28;20558;-73
2022/03/09 06:39:52;;;;;;;13.93;8.33;;;;;;;-1.73;86.49;102691.06;5028879;28;20491;-72
2022/03/09 06:42:17;;;;;;;12.60;8.77;;;;;;;-1.70;86.65;102692.25;5045238;28;20592;-73
2022/03/09 06:44:42;;;;;;;15.20;7.80;;;;;;;-1.58;86.20;102688.44;5048817;28;20754;-72
2022/03/09 06:47:08;;;;;;;12.97;8.47;;;;;;;-1.53;86.02;102684.72;5048923;28;20197;-72
2022/03/09 06:49:33;;;;;;;11.70;7.80;;;;;;;-1.44;85.48;102683.09;5049171;28;20193;-73
2022/03/09 06:51:58;;;;;;;12.03;8.33;;;;;;;-1.30;85.11;102681.91;5049206;28;20240;-73
2022/03/09 06:54:24;;;;;;;12.00;7.93;;;;;;;-1.18;85.27;102678.06;5048990;28;20205;-73
2022/03/09 06:56:52;;;;;;;11.30;7.20;;;;;;;-1.04;85.25;102682.75;5013086;28;20563;-72
2022/03/09 06:59:17;;;;;;;12.17;7.90;;;;;;;-0.96;85.25;102684.38;5045532;28;20550;-73
2022/03/09 07:01:43;;;;;;;13.57;8.03;;;;;;;-0.72;85.35;102689.19;5024439;28;21074;-72
2022/03/09 07:04:09;;;;;;;19.17;11.00;;;;;;;-0.44;85.52;102684.34;5039159;28;20604;-72
2022/03/09 07:06:35;;;;;;;19.03;12.07;;;;;;;-0.17;85.79;102685.97;5038835;28;20425;-71
2022/03/09 07:09:00;;;;;;;15.57;9.27;;;;;;;0.11;85.27;102683.53;5037588;28;20271;-72
2022/03/09 07:11:25;;;;;;;15.93;10.00;;;;;;;0.46;85.34;102680.78;5039714;28;20193;-72
2022/03/09 07:13:52;;;;;;;13.47;8.73;;;;;;;0.72;84.41;102682.31;5042628;28;20614;-73
2022/03/09 07:16:17;;;;;;;11.00;7.50;;;;;;;0.94;84.14;102680.94;5040059;28;20433;-72
2022/03/09 07:18:43;;;;;;;11.77;7.57;;;;;;;1.21;83.61;102680.78;5028456;28;20261;-70
2022/03/09 07:21:08;;;;;;;9.47;6.77;;;;;;;1.38;82.73;102684.75;5028797;28;20214;-71
2022/03/09 07:23:34;;;;;;;11.00;7.17;;;;;;;1.56;81.78;102687.16;5012032;28;20210;-70
2022/03/09 07:25:59;;;;;;;10.83;6.90;;;;;;;2.05;82.15;102685.47;5049358;28;20748;-71
2022/03/09 07:28:25;;;;;;;8.83;6.77;;;;;;;2.39;80.19;102689.97;5039923;28;20190;-72
2022/03/09 07:30:50;;;;;;;8.73;6.70;;;;;;;2.49;78.10;102695.00;5031895;28;20190;-71
2022/03/09 07:33:16;;;;;;;10.00;6.40;;;;;;;2.72;77.61;102697.75;5033959;28;20213;-72
2022/03/09 07:35:45;;;;;;;11.13;6.80;;;;;;;2.81;76.49;102695.94;5032253;28;20273;-72
2022/03/09 07:38:10;;;;;;;8.40;5.97;;;;;;;3.13;75.29;102688.38;5032222;28;20209;-71
2022/03/09 07:40:36;;;;;;;9.67;6.50;;;;;;;3.38;74.30;102698.00;5032091;28;20581;-73
2022/03/09 07:43:01;;;;;;;11.20;7.57;;;;;;;3.48;74.10;102697.94;5014087;28;20282;-74
2022/03/09 07:45:27;;;;;;;9.93;6.73;;;;;;;3.76;72.88;102690.78;5032049;28;20650;-72
2022/03/09 07:47:52;;;;;;;9.87;6.30;;;;;;;3.75;73.13;102694.09;5032354;28;20181;-74
2022/03/09 07:50:18;;;;;;;8.77;6.30;;;;;;;3.89;72.43;102689.31;5013999;28;20198;-73
2022/03/09 07:52:43;;;;;;;11.43;7.23;;;;;;;3.98;71.68;102696.72;5031782;28;20217;-74
2022/03/09 07:55:09;;;;;;;12.23;6.63;;;;;;;4.22;71.33;102699.44;5035957;28;20218;-74
2022/03/09 07:57:35;;;;;;;9.27;6.47;;;;;;;4.54;71.21;102690.00;5044273;28;20206;-73
2022/03/09 08:00:00;;;;;;;8.87;6.33;;;;;;;5.05;68.88;102687.78;5040699;28;20198;-73
2022/03/09 08:02:26;;;;;;;9.57;6.10;;;;;;;5.10;69.15;102686.44;5036528;28;20970;-74
2022/03/09 08:04:51;;;;;;;10.63;6.17;;;;;;;5.53;67.79;102683.59;5031333;28;20197;-73
2022/03/09 08:07:17;;;;;;;11.27;6.20;;;;;;;5.66;66.78;102684.53;5031671;28;20178;-72
2022/03/09 08:09:42;;;;;;;9.13;6.60;;;;;;;5.67;65.60;102680.34;5031158;28;20261;-72
2022/03/09 08:12:11;;;;;;;9.53;5.90;;;;;;;6.01;66.13;102680.22;5036307;28;20221;-72
2022/03/09 08:14:36;;;;;;;8.13;6.37;;;;;;;6.12;65.75;102675.84;5041080;28;20632;-71
2022/03/09 08:17:02;;;;;;;9.97;5.67;;;;;;;6.40;64.18;102679.41;5041240;28;20213;-72
2022/03/09 08:19:28;;;;;;;8.40;6.30;;;;;;;6.41;63.07;102678.63;5029722;28;20278;-71
2022/03/09 08:21:54;;;;;;;8.10;5.70;;;;;;;6.47;62.56;102677.38;5031099;28;20745;-72
2022/03/09 08:24:19;;;;;;;6.70;5.70;;;;;;;6.67;61.62;102678.63;5023332;28;20234;-72
2022/03/09 08:26:45;;;;;;;8.17;5.60;;;;;;;7.04;60.42;102681.06;5031160;28;20230;-72
2022/03/09 08:29:10;;;;;;;9.50;5.50;;;;;;;7.17;59.36;102688.69;5031194;28;20221;-72
2022/03/09 08:31:36;;;;;;;9.00;5.57;;;;;;;7.67;57.97;102679.94;5012782;28;20183;-72
2022/03/09 08:34:01;;;;;;;7.67;5.30;;;;;;;7.29;57.31;102686.94;5030533;28;20888;-72
2022/03/09 08:36:26;;;;;;;8.10;5.90;;;;;;;7.27;56.95;102678.28;5029972;28;20245;-72
2022/03/09 08:38:53;;;;;;;9.13;5.80;;;;;;;7.52;56.98;102678.13;5030544;28;20210;-72
2022/03/09 08:41:19;;;;;;;6.87;5.37;;;;;;;7.78;55.79;102681.47;5037592;28;20537;-71
2022/03/09 08:43:44;;;;;;;8.63;5.13;;;;;;;7.88;54.08;102682.91;5041586;28;20206;-74
2022/03/09 08:46:11;;;;;;;9.23;5.87;;;;;;;7.82;55.25;102688.50;5030865;28;20198;-74
2022/03/09 08:48:38;;;;;;;9.10;5.50;;;;;;;8.02;54.09;102684.59;5040490;28;20251;-74
2022/03/09 08:51:03;;;;;;;7.07;4.90;;;;;;;8.57;52.62;102687.03;5050726;28;20204;-75
2022/03/09 08:53:29;;;;;;;6.43;4.97;;;;;;;8.67;53.07;102684.19;5050322;28;20214;-73
2022/03/09 08:55:54;;;;;;;8.00;5.90;;;;;;;8.51;52.48;102695.22;5044707;28;20309;-73
2022/03/09 08:58:19;;;;;;;9.10;6.00;;;;;;;8.21;54.84;102695.97;5030551;28;20257;-73
2022/03/09 09:00:45;;;;;;;7.43;5.23;;;;;;;8.73;54.03;102689.66;5031538;28;20234;-69
2022/03/09 09:03:10;;;;;;;7.40;5.37;;;;;;;8.96;52.93;102686.69;5050414;28;20232;-73
2022/03/09 09:05:35;;;;;;;6.87;5.37;;;;;;;9.62;51.83;102680.97;5032491;28;20186;-75
2022/03/09 09:08:01;;;;;;;7.57;4.70;;;;;;;9.86;49.63;102689.06;5047352;28;20190;-72
2022/03/09 09:10:26;;;;;;;6.77;4.83;;;;;;;9.63;49.50;102692.97;5030456;28;20650;-74
2022/03/09 09:12:52;;;;;;;7.17;5.37;;;;;;;9.92;49.63;102692.84;5030193;28;20210;-74
2022/03/09 09:15:17;;;;;;;10.33;5.50;;;;;;;11.19;46.39;102682.97;5030244;28;20210;-73
2022/03/09 09:17:42;;;;;;;5.67;5.00;;;;;;;15.61;38.27;102664.69;5033757;28;20715;-70
2022/03/09 09:20:09;;;;;;;6.10;5.40;;;;;;;19.22;30.81;102650.88;5025162;28;20190;-71
2022/03/09 09:22:35;;;;;;;6.70;5.57;;;;;;;20.98;28.08;102650.00;5029673;28;20596;-70
2022/03/09 09:25:02;;;;;;;8.27;6.00;;;;;;;21.96;27.03;102648.66;5020509;28;20234;-71
2022/03/09 09:27:27;;;;;;;6.57;5.47;;;;;;;21.67;27.01;102647.72;5030359;28;20588;-71
2022/03/09 09:29:53;;;;;;;6.43;5.60;;;;;;;22.53;25.00;102653.97;5012469;28;20191;-71
2022/03/09 09:32:18;;;;;;;6.40;5.10;;;;;;;23.42;24.21;102644.19;5012285;28;20265;-72
2022/03/09 09:34:44;;;;;;;6.23;5.33;;;;;;;23.98;23.73;102644.78;5029826;28;20260;-72
2022/03/09 09:37:09;;;;;;;5.80;5.20;;;;;;;22.87;24.96;102653.06;5029831;28;20256;-72
2022/03/09 09:39:34;;;;;;;5.57;5.07;;;;;;;22.96;24.70;102646.94;5029837;28;20236;-73
2022/03/09 09:42:00;;;;;;;7.80;5.72;;;;;;;22.13;25.33;102662.63;5029808;28;20248;-73
2022/03/09 09:44:25;;;;;;;6.40;5.60;;;;;;;24.03;23.51;102648.22;5029613;28;20221;-71
2022/03/09 09:46:52;;;;;;;5.85;5.28;;;;;;;24.57;22.88;102644.28;5011988;28;20198;-71
2022/03/09 09:49:23;;;;;;;6.07;5.47;;;;;;;25.32;22.11;102644.41;5029586;28;20599;-71
2022/03/09 09:51:50;;;;;;;6.55;5.32;;;;;;;25.46;22.11;102634.59;5029704;28;20175;-72
2022/03/09 09:54:17;;;;;;;5.63;5.13;;;;;;;23.99;22.93;102648.28;5029543;28;20293;-72
2022/03/09 09:56:43;;;;;;;6.22;5.10;;;;;;;24.39;22.50;102637.47;5029369;28;20837;-71
2022/03/09 09:59:09;;;;;;;6.43;5.75;;;;;;;23.71;23.35;102641.44;5029480;28;20690;-71
2022/03/09 10:01:35;;;;;;;6.57;5.50;;;;;;;23.44;22.67;102639.81;5031693;28;20202;-72
2022/03/09 10:04:02;;;;;;;5.70;5.15;;;;;;;24.88;21.37;102632.66;5039652;28;20205;-71
2022/03/09 10:06:28;;;;;;;6.18;5.20;;;;;;;22.96;23.36;102645.19;5031377;28;20194;-71
2022/03/09 10:09:00;;;;;;;5.78;5.03;;;;;;;24.66;22.07;102642.50;5032455;28;20193;-71
2022/03/09 10:11:52;;;;;;;5.78;4.93;;;;;;;27.22;20.49;102644.84;5011892;28;20196;-72
2022/03/09 10:14:38;;;;;;;5.97;5.38;;;;;;;26.69;20.43;102639.72;5030028;28;20209;-74
2022/03/09 10:17:06;;;;;;;6.35;5.75;;;;;;;25.84;20.93;102640.19;5011562;28;20189;-74
2022/03/09 10:19:34;;;;;;;6.95;5.05;;;;;;;25.27;21.55;102650.63;5033437;28;20243;-73
2022/03/09 10:22:26;;;;;;;5.50;4.95;;;;;;;24.98;21.56;102643.03;5030786;28;20266;-73
2022/03/09 10:24:54;;;;;;;6.15;5.55;;;;;;;25.74;20.16;102648.22;5049020;28;20182;-73
2022/03/09 10:27:37;;;;;;;6.43;4.90;;;;;;;27.72;19.22;102647.28;5049292;28;20181;-73
2022/03/09 10:30:08;;;;;;;6.35;5.38;;;;;;;23.98;21.93;102657.03;5031297;28;20327;-72
2022/03/09 10:32:52;;;;;;;5.93;5.32;;;;;;;26.33;19.97;102651.72;5049205;28;20599;-73
2022/03/09 10:35:40;;;;;;;6.25;5.00;;;;;;;28.74;18.48;102640.34;5049231;28;20217;-74
2022/03/09 10:38:26;;;;;;;5.72;5.22;;;;;;;25.15;21.19;102650.72;5031665;28;20215;-73
2022/03/09 10:40:55;;;;;;;5.70;5.20;;;;;;;27.72;19.25;102644.63;5049362;28;20186;-73
2022/03/09 10:43:26;;;;;;;6.38;5.40;;;;;;;27.25;19.33;102647.41;5049488;28;20213;-73
2022/03/09 10:46:04;;;;;;;6.85;5.32;;;;;;;26.65;18.97;102640.66;5049041;28;20185;-73
2022/03/09 10:48:49;;;;;;;5.93;5.32;;;;;;;26.48;19.87;102650.59;5049053;28;20205;-73
2022/03/09 10:51:47;;;;;;;6.22;5.63;;;;;;;26.71;19.87;102641.41;5049081;28;20204;-72
2022/03/09 10:54:24;;;;;;;6.07;5.47;;;;;;;28.03;18.89;102640.41;5029972;28;20624;-72
2022/03/09 10:56:50;;;;;;;5.97;5.47;;;;;;;28.10;18.88;102639.38;5039446;28;20680;-73
2022/03/09 10:59:19;;;;;;;6.38;5.78;;;;;;;28.36;17.91;102626.41;5038883;28;20681;-74
2022/03/09 11:02:02;;;;;;;6.63;5.68;;;;;;;27.75;18.57;102634.00;5038609;28;20201;-73
2022/03/09 11:04:27;;;;;;;6.07;5.50;;;;;;;28.63;18.29;102628.34;5019111;28;20213;-74
2022/03/09 11:06:55;;;;;;;6.43;5.82;;;;;;;30.64;16.83;102624.75;5034300;28;20557;-74
2022/03/09 11:09:20;;;;;;;5.38;4.90;;;;;;;29.88;18.06;102625.53;5015442;28;20210;-71
2022/03/09 11:11:48;;;;;;;5.53;4.97;;;;;;;29.74;18.08;102623.34;5032458;28;20182;-72
2022/03/09 11:14:15;;;;;;;6.40;5.30;;;;;;;29.52;19.46;102619.59;5032497;28;20221;-71
2022/03/09 11:16:44;;;;;;;5.30;4.90;;;;;;;29.41;17.65;102616.44;5048884;28;20635;-71
2022/03/09 11:19:10;;;;;;;7.15;5.53;;;;;;;28.65;17.78;102616.00;5034439;28;20636;-71
2022/03/09 11:21:36;;;;;;;5.72;5.05;;;;;;;30.91;16.37;102620.28;5052392;28;20197;-72